createdAt,value
2022-10-07T00:00:36.023Z,4.65
2022-10-07T00:12:22.343Z,6.25
2022-10-07T00:17:26.126Z,5.07
2022-10-07T00:22:28.840Z,5.50
2022-10-07T00:27:32.942Z,4.75
2022-10-07T00:32:35.668Z,3.78
2022-10-07T00:37:43.108Z,4.13
2022-10-07T00:42:48.355Z,3.42
2022-10-07T00:47:51.916Z,3.70
2022-10-07T00:52:58.367Z,4.20
2022-10-07T00:58:06.567Z,3.20
2022-10-07T01:03:09.387Z,4.30
2022-10-07T01:08:12.295Z,5.20
2022-10-07T01:13:26.591Z,3.10
2022-10-07T01:18:35.652Z,2.95
2022-10-07T01:23:56.113Z,2.90
2022-10-07T01:29:05.205Z,2.88
2022-10-07T01:34:10.671Z,3.20
2022-10-07T01:39:17.643Z,3.10
2022-10-07T01:44:22.499Z,3.38
2022-10-07T01:49:26.556Z,3.60
2022-10-07T01:54:40.705Z,4.13
2022-10-07T02:00:03.601Z,3.55
2022-10-07T02:05:25.285Z,3.72
2022-10-07T02:10:34.298Z,2.80
2022-10-07T02:15:44.207Z,3.42
2022-10-07T02:20:51.876Z,3.70
2022-10-07T02:25:57.526Z,3.88
2022-10-07T02:31:05.111Z,3.42
2022-10-07T02:36:13.364Z,2.75
2022-10-07T02:41:32.159Z,2.83
2022-10-07T02:47:06.025Z,3.00
2022-10-07T02:52:12.678Z,2.47
2022-10-07T02:57:18.467Z,2.77
2022-10-07T03:02:28.525Z,2.33
2022-10-07T03:07:31.457Z,3.08
2022-10-07T03:12:35.537Z,2.65
2022-10-07T03:17:41.555Z,2.95
2022-10-07T03:22:45.055Z,2.80
2022-10-07T03:27:51.394Z,2.63
2022-10-07T03:32:55.546Z,2.60
2022-10-07T03:37:58.841Z,4.22
2022-10-07T03:43:02.421Z,2.55
2022-10-07T03:48:06.645Z,2.53
2022-10-07T03:53:09.489Z,2.10
2022-10-07T03:58:13.199Z,2.33
2022-10-07T04:03:18.710Z,2.42
2022-10-07T04:08:27.930Z,2.33
2022-10-07T04:13:31.697Z,2.75
2022-10-07T04:18:36.733Z,2.42
2022-10-07T04:23:41.545Z,2.85
2022-10-07T04:28:44.841Z,1.90
2022-10-07T04:33:53.557Z,3.30
2022-10-07T04:39:00.877Z,3.33
2022-10-07T04:44:07.981Z,3.40
2022-10-07T04:49:18.572Z,2.92
2022-10-07T04:54:22.646Z,2.63
2022-10-07T04:59:30.173Z,3.47
2022-10-07T05:04:35.182Z,5.32
2022-10-07T05:09:38.871Z,3.35
2022-10-07T05:14:43.090Z,3.70
2022-10-07T05:19:48.681Z,3.03
2022-10-07T05:24:51.879Z,3.40
2022-10-07T05:29:55.389Z,5.05
2022-10-07T05:34:59.675Z,5.57
2022-10-07T05:40:02.624Z,7.10
2022-10-07T05:45:06.789Z,7.53
2022-10-07T05:50:12.364Z,5.32
2022-10-07T05:55:16.679Z,6.15
2022-10-07T06:00:19.884Z,5.57
2022-10-07T06:05:27.531Z,4.22
2022-10-07T06:10:48.154Z,7.03
2022-10-07T06:15:51.200Z,11.48
2022-10-07T06:20:56.982Z,5.00
2022-10-07T06:26:03.294Z,3.22
2022-10-07T06:31:08.676Z,4.18
2022-10-07T06:36:14.799Z,4.47
2022-10-07T06:46:25.737Z,6.38
2022-10-07T06:51:31.906Z,5.80
2022-10-07T06:56:35.513Z,5.55
2022-10-07T07:01:38.711Z,6.05
2022-10-07T07:06:42.967Z,7.53
2022-10-07T07:11:46.461Z,5.90
2022-10-07T07:16:53.953Z,4.85
2022-10-07T07:22:00.761Z,4.70
2022-10-07T07:27:04.605Z,4.05
2022-10-07T07:32:08.336Z,3.97
2022-10-07T07:37:16.295Z,6.87
2022-10-07T07:42:23.469Z,3.20
2022-10-07T07:47:27.703Z,5.22
2022-10-07T07:52:32.140Z,3.58
2022-10-07T07:57:37.118Z,3.13
2022-10-07T08:02:44.139Z,3.43
2022-10-07T08:07:53.473Z,3.70
2022-10-07T08:12:57.176Z,3.95
2022-10-07T08:18:00.845Z,4.30
2022-10-07T08:23:07.695Z,5.32
2022-10-07T08:28:10.645Z,4.90
2022-10-07T08:33:13.615Z,4.75
2022-10-07T08:38:17.839Z,4.65
2022-10-07T08:43:24.717Z,4.68
2022-10-07T08:53:38.212Z,6.22
2022-10-07T08:58:54.227Z,4.97
2022-10-07T09:04:07.018Z,7.13
2022-10-07T09:09:17.858Z,5.47
2022-10-07T09:14:28.771Z,4.20
2022-10-07T09:19:34.572Z,3.80
2022-10-07T09:24:38.768Z,3.25
2022-10-07T09:29:41.548Z,3.50
2022-10-07T09:34:44.448Z,3.35
2022-10-07T09:39:50.781Z,3.78
2022-10-07T09:44:56.376Z,3.28
2022-10-07T09:50:00.534Z,3.92
2022-10-07T09:55:32.770Z,4.75
2022-10-07T10:00:44.799Z,3.97
2022-10-07T10:05:58.787Z,3.25
2022-10-07T10:11:06.090Z,3.97
2022-10-07T10:16:34.054Z,2.72
2022-10-07T10:21:41.094Z,3.08
2022-10-07T10:26:56.525Z,2.30
2022-10-07T10:32:38.191Z,3.58
2022-10-07T10:37:59.432Z,2.28
2022-10-07T10:48:55.369Z,2.65
2022-10-07T10:54:17.825Z,1.98
2022-10-07T10:59:39.127Z,2.88
2022-10-07T11:04:47.748Z,3.00
2022-10-07T11:09:57.150Z,2.25
2022-10-07T11:15:10.169Z,2.28
2022-10-07T11:20:21.288Z,2.40
2022-10-07T11:25:32.595Z,2.10
2022-10-07T11:30:46.165Z,1.77
2022-10-07T11:35:56.754Z,1.52
2022-10-07T11:41:04.087Z,2.22
2022-10-07T11:46:16.244Z,1.63
2022-10-07T11:51:25.205Z,1.85
2022-10-07T11:56:31.601Z,2.40
2022-10-07T12:07:28.272Z,2.25
2022-10-07T12:12:51.085Z,2.20
2022-10-07T12:18:38.775Z,2.42
2022-10-07T12:23:46.651Z,2.03
2022-10-07T12:29:02.103Z,3.00
2022-10-07T12:34:13.051Z,1.55
2022-10-07T12:39:37.418Z,1.80
2022-10-07T12:44:45.515Z,2.05
2022-10-07T12:49:54.938Z,2.53
2022-10-07T12:55:02.154Z,1.48
2022-10-07T13:00:12.023Z,2.65
2022-10-07T13:06:07.869Z,1.70
2022-10-07T13:11:45.520Z,2.00
2022-10-07T13:16:55.948Z,2.10
2022-10-07T13:22:07.587Z,2.13
2022-10-07T13:27:12.490Z,1.67
2022-10-07T13:32:17.351Z,2.20
2022-10-07T13:37:27.617Z,2.20
2022-10-07T13:42:31.877Z,2.35
2022-10-07T13:47:36.251Z,1.77
2022-10-07T13:52:45.044Z,2.25
2022-10-07T13:57:49.495Z,1.77
2022-10-07T14:02:53.115Z,1.30
2022-10-07T14:07:58.141Z,2.75
2022-10-07T14:13:07.200Z,1.55
2022-10-07T14:18:12.243Z,2.65
2022-10-07T14:23:26.199Z,1.90
2022-10-07T14:28:32.329Z,2.17
2022-10-07T14:34:06.641Z,2.30
2022-10-07T14:39:32.999Z,2.58
2022-10-07T14:44:38.512Z,1.67
2022-10-07T14:49:42.263Z,2.60
2022-10-07T14:54:45.157Z,1.85
2022-10-07T14:59:50.031Z,2.53
2022-10-07T15:04:53.041Z,1.65
2022-10-07T15:09:55.874Z,2.70
2022-10-07T15:14:59.933Z,2.92
2022-10-07T15:20:05.019Z,2.58
2022-10-07T15:25:10.915Z,1.98
2022-10-07T15:30:15.436Z,2.28
2022-10-07T15:35:19.095Z,6.47
2022-10-07T15:40:21.991Z,2.40
2022-10-07T15:45:27.288Z,3.33
2022-10-07T15:50:31.008Z,2.15
2022-10-07T15:55:34.097Z,2.78
2022-10-07T16:00:38.189Z,3.20
2022-10-07T16:05:40.861Z,2.47
2022-10-07T16:10:43.653Z,3.17
2022-10-07T16:15:58.662Z,2.00
2022-10-07T16:21:04.583Z,2.53
2022-10-07T16:26:09.284Z,2.45
2022-10-07T16:31:13.467Z,2.47
2022-10-07T16:36:16.250Z,3.92
2022-10-07T16:41:20.625Z,2.42
2022-10-07T16:46:24.971Z,4.05
2022-10-07T16:51:29.757Z,4.20
2022-10-07T16:56:34.824Z,3.53
2022-10-07T17:01:40.110Z,2.92
2022-10-07T17:06:44.031Z,3.13
2022-10-07T17:11:47.788Z,3.78
2022-10-07T17:16:53.593Z,5.20
2022-10-07T17:21:58.372Z,5.30
2022-10-07T17:27:02.163Z,4.35
2022-10-07T17:32:07.499Z,4.68
2022-10-07T17:37:10.783Z,4.68
2022-10-07T17:42:13.685Z,5.20
2022-10-07T17:47:17.787Z,7.25
2022-10-07T17:52:25.169Z,6.38
2022-10-07T17:57:29.622Z,10.20
2022-10-07T18:02:33.866Z,8.18
2022-10-07T18:07:36.706Z,8.98
2022-10-07T18:12:56.951Z,12.98
2022-10-07T18:18:02.287Z,16.65
2022-10-07T18:23:05.053Z,17.52
2022-10-07T18:28:08.246Z,19.73
2022-10-07T18:33:12.389Z,17.60
2022-10-07T18:38:15.239Z,12.25
2022-10-07T18:43:18.253Z,11.25
2022-10-07T18:48:22.317Z,9.95
2022-10-07T18:53:25.099Z,7.93
2022-10-07T18:58:27.846Z,6.78
2022-10-07T19:03:33.407Z,7.05
2022-10-07T19:08:36.345Z,6.78
2022-10-07T19:13:49.944Z,7.38
2022-10-07T19:18:56.038Z,8.15
2022-10-07T19:24:02.235Z,8.05
2022-10-07T19:29:06.962Z,8.68
2022-10-07T19:34:13.417Z,7.95
2022-10-07T19:39:18.078Z,8.15
2022-10-07T19:44:20.996Z,13.98
2022-10-07T19:49:25.291Z,7.68
2022-10-07T19:54:28.281Z,6.47
2022-10-07T19:59:31.259Z,7.32
2022-10-07T20:04:35.523Z,8.23
2022-10-07T20:09:38.401Z,7.55
2022-10-07T20:14:41.395Z,7.57
2022-10-07T20:19:48.926Z,8.68
2022-10-07T20:24:51.863Z,9.75
2022-10-07T20:30:02.432Z,8.80
2022-10-07T20:35:12.469Z,8.47
2022-10-07T20:40:33.051Z,7.63
2022-10-07T20:45:56.462Z,6.22
2022-10-07T20:51:08.211Z,8.95
2022-10-07T20:56:10.923Z,7.72
2022-10-07T21:01:14.765Z,6.13
2022-10-07T21:06:19.158Z,7.90
2022-10-07T21:11:22.259Z,13.93
2022-10-07T21:16:26.382Z,8.80
2022-10-07T21:21:31.000Z,7.85
2022-10-07T21:26:34.306Z,9.68
2022-10-07T21:31:37.270Z,9.15
2022-10-07T21:36:49.239Z,9.40
2022-10-07T21:41:54.668Z,8.82
2022-10-07T21:46:59.774Z,19.10
2022-10-07T21:52:03.995Z,12.25
2022-10-07T21:57:06.724Z,13.40
2022-10-07T22:02:09.472Z,12.93
2022-10-07T22:07:31.698Z,11.75
2022-10-07T22:12:36.408Z,11.38
2022-10-07T22:17:39.189Z,12.32
2022-10-07T22:22:43.379Z,12.95
2022-10-07T22:27:48.753Z,13.65
2022-10-07T22:32:51.594Z,17.45
2022-10-07T22:37:58.690Z,14.13
2022-10-07T22:43:02.138Z,13.48
2022-10-07T22:48:05.247Z,10.45
2022-10-07T22:53:09.419Z,10.07
2022-10-07T22:58:12.986Z,9.02
2022-10-07T23:03:15.845Z,10.43
2022-10-07T23:08:20.343Z,10.07
2022-10-07T23:13:23.137Z,11.05
2022-10-07T23:18:25.994Z,11.27
2022-10-07T23:23:30.981Z,11.90
2022-10-07T23:28:35.528Z,9.15
2022-10-07T23:33:39.278Z,8.23
2022-10-07T23:38:44.646Z,6.88
2022-10-07T23:43:49.126Z,6.47
2022-10-07T23:48:51.964Z,5.93
2022-10-07T23:53:56.914Z,6.60
2022-10-07T23:59:00.520Z,4.82
